Time;durP1;ratioP1;P1;durP2;ratioP2;P2;SDS_P1;SDS_P2;PMS_P1;PMS_P2;Temp;Humidity;BMP_temperature;BMP_pressure;BME280_temperature;BME280_humidity;BME280_pressure;Samples;Min_cycle;Max_cycle;Signal;HPM_P1;HPM_P2
2023/12/22 00:00:47;;;;;;;18.90;11.07;;;;;;;4.24;100.00;97761.66;1474684;88;21605;-77
2023/12/22 00:03:15;;;;;;;22.73;11.40;;;;;;;4.24;100.00;97756.92;1482482;88;21347;-79
2023/12/22 00:05:41;;;;;;;22.17;11.67;;;;;;;4.22;100.00;97757.58;1472038;88;21324;-77
2023/12/22 00:08:08;;;;;;;21.40;11.83;;;;;;;4.19;100.00;97748.77;1475002;88;22442;-76
2023/12/22 00:10:34;;;;;;;18.87;11.70;;;;;;;4.21;100.00;97769.05;1476924;88;21472;-78
2023/12/22 00:13:00;;;;;;;16.07;10.23;;;;;;;4.21;100.00;97755.97;1477101;88;21550;-78
2023/12/22 00:15:26;;;;;;;18.70;12.33;;;;;;;4.23;100.00;97763.13;1470873;88;21399;-79
2023/12/22 00:17:52;;;;;;;17.13;10.63;;;;;;;4.23;100.00;97755.27;1482032;88;21491;-80
2023/12/22 00:20:19;;;;;;;19.43;10.87;;;;;;;4.25;100.00;97748.08;1480069;88;21480;-80
2023/12/22 00:22:45;;;;;;;20.07;10.93;;;;;;;4.23;100.00;97735.64;1472812;88;22165;-77
2023/12/22 00:25:12;;;;;;;22.73;12.13;;;;;;;4.24;100.00;97741.22;1481736;88;21340;-76
2023/12/22 00:27:38;;;;;;;18.03;10.93;;;;;;;4.24;100.00;97737.29;1471352;88;21428;-79
2023/12/22 00:30:06;;;;;;;20.70;12.33;;;;;;;4.21;100.00;97728.48;1473488;88;21369;-76
2023/12/22 00:32:32;;;;;;;20.73;12.23;;;;;;;4.20;100.00;97734.67;1480358;88;21457;-78
2023/12/22 00:34:59;;;;;;;22.97;11.80;;;;;;;4.20;100.00;97730.28;1465438;88;21391;-77
2023/12/22 00:37:25;;;;;;;19.13;11.60;;;;;;;4.21;100.00;97736.33;1472584;88;21523;-77
2023/12/22 00:39:51;;;;;;;18.27;11.43;;;;;;;4.20;100.00;97725.52;1483409;88;22345;-79
2023/12/22 00:42:17;;;;;;;18.93;12.07;;;;;;;4.20;100.00;97742.06;1461956;88;22263;-78
2023/12/22 00:44:43;;;;;;;18.67;12.30;;;;;;;4.24;100.00;97721.58;1475307;88;21333;-78
2023/12/22 00:47:09;;;;;;;16.93;10.53;;;;;;;4.24;100.00;97728.13;1475898;88;21517;-79
2023/12/22 00:49:35;;;;;;;20.53;12.77;;;;;;;4.25;100.00;97724.01;1476920;88;21429;-78
2023/12/22 00:52:02;;;;;;;20.97;10.93;;;;;;;4.28;100.00;97732.02;1478797;88;22515;-78
2023/12/22 00:54:30;;;;;;;17.40;10.40;;;;;;;4.29;100.00;97746.76;1460557;88;21369;-78
2023/12/22 00:56:56;;;;;;;16.93;9.67;;;;;;;4.32;100.00;97757.38;1459504;88;22352;-79
2023/12/22 00:59:22;;;;;;;20.00;11.73;;;;;;;4.33;100.00;97754.58;1475396;88;21458;-79
2023/12/22 01:01:48;;;;;;;17.37;10.80;;;;;;;4.33;100.00;97733.62;1475632;88;21325;-78
2023/12/22 01:04:15;;;;;;;16.63;11.00;;;;;;;4.33;100.00;97736.75;1478538;88;21392;-81
2023/12/22 01:06:41;;;;;;;17.23;11.07;;;;;;;4.30;100.00;97731.36;1458064;88;21473;-77
2023/12/22 01:09:07;;;;;;;19.47;11.83;;;;;;;4.27;100.00;97729.89;1475265;88;22308;-78
2023/12/22 01:11:34;;;;;;;16.03;10.33;;;;;;;4.29;100.00;97721.88;1475060;88;21656;-77
2023/12/22 01:14:00;;;;;;;16.40;11.37;;;;;;;4.28;100.00;97720.23;1483487;88;21384;-78
2023/12/22 01:16:26;;;;;;;19.47;11.97;;;;;;;4.29;100.00;97704.36;1473022;88;21333;-78
2023/12/22 01:18:53;;;;;;;20.37;10.87;;;;;;;4.33;100.00;97716.61;1473728;88;21550;-77
2023/12/22 01:21:19;;;;;;;16.63;10.00;;;;;;;4.34;100.00;97698.59;1479483;88;21469;-78
2023/12/22 01:23:45;;;;;;;16.93;11.43;;;;;;;4.35;100.00;97694.19;1474100;88;21339;-77
2023/12/22 01:26:12;;;;;;;17.53;11.07;;;;;;;4.34;100.00;97693.84;1477511;88;22346;-77
2023/12/22 01:28:38;;;;;;;19.17;10.43;;;;;;;4.33;100.00;97687.00;1462875;88;21479;-78
2023/12/22 01:31:04;;;;;;;19.73;12.53;;;;;;;4.32;100.00;97699.78;1476200;88;21369;-78
2023/12/22 01:33:30;;;;;;;18.37;10.70;;;;;;;4.31;100.00;97677.98;1466997;88;21517;-77
2023/12/22 01:35:56;;;;;;;15.97;10.90;;;;;;;4.30;100.00;97676.37;1462345;88;21384;-79
2023/12/22 01:38:22;;;;;;;16.97;10.73;;;;;;;4.28;100.00;97690.94;1472140;88;21491;-79
2023/12/22 01:40:49;;;;;;;21.60;10.97;;;;;;;4.26;100.00;97687.70;1470819;88;21369;-79
2023/12/22 01:43:16;;;;;;;20.03;12.20;;;;;;;4.27;100.00;97687.20;1478153;88;21436;-79
2023/12/22 01:45:44;;;;;;;19.97;12.47;;;;;;;4.29;100.00;97691.77;1475964;88;21517;-79
2023/12/22 01:48:11;;;;;;;20.53;12.73;;;;;;;4.28;100.00;97665.25;1470765;88;22036;-78
2023/12/22 01:50:39;;;;;;;17.57;11.23;;;;;;;4.29;100.00;97647.27;1473193;88;21435;-79
2023/12/22 01:53:05;;;;;;;20.73;12.87;;;;;;;4.32;100.00;97640.86;1479350;88;22344;-78
2023/12/22 01:55:31;;;;;;;19.17;10.20;;;;;;;4.35;100.00;97646.55;1480006;88;21419;-79
2023/12/22 01:57:58;;;;;;;18.97;11.93;;;;;;;4.38;100.00;97650.12;1470542;88;21384;-78
2023/12/22 02:00:25;;;;;;;18.30;11.07;;;;;;;4.40;100.00;97633.75;1471380;88;22455;-79
2023/12/22 02:02:52;;;;;;;21.27;11.23;;;;;;;4.41;100.00;97611.80;1471551;88;21361;-79
2023/12/22 02:05:18;;;;;;;22.37;12.30;;;;;;;4.46;100.00;97600.78;1462579;88;21525;-77
2023/12/22 02:07:46;;;;;;;16.23;11.03;;;;;;;4.50;100.00;97610.73;1472184;88;21318;-79
2023/12/22 02:10:12;;;;;;;17.10;11.93;;;;;;;4.54;100.00;97596.78;1467122;88;21553;-77
2023/12/22 02:12:38;;;;;;;24.60;12.60;;;;;;;4.58;100.00;97598.06;1475575;88;21436;-77
2023/12/22 02:15:06;;;;;;;19.83;10.90;;;;;;;4.59;100.00;97601.50;1473286;88;21376;-77
2023/12/22 02:17:50;;;;;;;18.50;11.50;;;;;;;4.59;100.00;97586.59;1467153;88;21376;-79
2023/12/22 02:20:17;;;;;;;18.67;10.53;;;;;;;4.62;100.00;97580.18;1473717;88;21488;-79
2023/12/22 02:22:43;;;;;;;15.80;11.33;;;;;;;4.64;100.00;97571.16;1480232;88;22331;-78
2023/12/22 02:25:09;;;;;;;15.57;9.17;;;;;;;4.66;100.00;97577.50;1481107;88;21376;-77
2023/12/22 02:27:44;;;;;;;18.97;11.27;;;;;;;4.66;100.00;97580.13;1481370;88;21376;-77
2023/12/22 02:30:34;;;;;;;18.63;11.23;;;;;;;4.65;100.00;97580.62;1473456;88;21377;-77
2023/12/22 02:33:03;;;;;;;17.57;11.50;;;;;;;4.67;100.00;97592.25;1471983;88;22386;-77
2023/12/22 02:35:34;;;;;;;15.90;10.80;;;;;;;4.65;100.00;97607.33;1479039;88;22368;-78
2023/12/22 02:38:03;;;;;;;20.88;11.78;;;;;;;4.61;100.00;97602.14;1474358;88;21428;-77
2023/12/22 02:40:31;;;;;;;19.60;10.83;;;;;;;4.59;100.00;97595.75;1473208;88;21391;-78
2023/12/22 02:42:57;;;;;;;17.77;11.20;;;;;;;4.58;100.00;97601.19;1477849;88;22020;-78
2023/12/22 02:45:23;;;;;;;17.17;10.77;;;;;;;4.55;100.00;97598.42;1469298;88;21414;-78
2023/12/22 02:47:50;;;;;;;19.07;11.50;;;;;;;4.54;100.00;97604.64;1475493;88;21502;-79
2023/12/22 02:50:17;;;;;;;15.67;10.73;;;;;;;4.49;100.00;97585.55;1472347;88;22337;-79
2023/12/22 02:52:43;;;;;;;18.57;11.00;;;;;;;4.49;100.00;97588.16;1469947;88;21561;-78
2023/12/22 02:55:10;;;;;;;20.03;13.13;;;;;;;4.51;100.00;97597.95;1475304;88;21287;-80
2023/12/22 02:57:36;;;;;;;17.77;12.03;;;;;;;4.51;100.00;97597.14;1480548;88;22746;-79
2023/12/22 03:00:03;;;;;;;24.77;11.93;;;;;;;4.53;100.00;97595.97;1468641;88;21376;-79
2023/12/22 03:02:29;;;;;;;19.47;11.50;;;;;;;4.55;100.00;97583.22;1478309;88;21369;-77
2023/12/22 03:04:55;;;;;;;17.90;12.30;;;;;;;4.56;100.00;97576.97;1479960;88;22247;-78
2023/12/22 03:07:21;;;;;;;16.57;11.83;;;;;;;4.57;100.00;97585.94;1472620;88;21590;-79
2023/12/22 03:09:47;;;;;;;16.03;11.33;;;;;;;4.58;100.00;97588.09;1474537;88;21531;-79
2023/12/22 03:12:13;;;;;;;26.30;13.67;;;;;;;4.56;100.00;97567.80;1477084;88;21324;-78
2023/12/22 03:14:40;;;;;;;16.63;11.80;;;;;;;4.56;100.00;97551.59;1477464;88;21472;-78
2023/12/22 03:17:07;;;;;;;17.97;11.83;;;;;;;4.56;100.00;97545.54;1474131;88;22470;-79
2023/12/22 03:19:33;;;;;;;16.90;11.57;;;;;;;4.57;100.00;97547.16;1475221;88;21390;-79
2023/12/22 03:22:00;;;;;;;18.87;13.33;;;;;;;4.56;100.00;97531.13;1477619;88;21419;-79
2023/12/22 03:24:28;;;;;;;18.63;13.83;;;;;;;4.56;100.00;97530.63;1486471;88;22301;-79
2023/12/22 03:26:55;;;;;;;20.37;12.10;;;;;;;4.57;100.00;97500.00;1474873;88;21443;-79
2023/12/22 03:29:21;;;;;;;17.17;11.70;;;;;;;4.58;100.00;97502.96;1453917;88;21435;-79
2023/12/22 03:31:48;;;;;;;16.97;12.67;;;;;;;4.59;100.00;97529.46;1471606;88;22544;-80
2023/12/22 03:34:14;;;;;;;20.23;12.37;;;;;;;4.61;100.00;97481.64;1469083;88;21399;-80
2023/12/22 03:36:40;;;;;;;17.23;11.70;;;;;;;4.62;100.00;97485.87;1469171;88;21399;-77
2023/12/22 03:39:06;;;;;;;16.80;12.43;;;;;;;4.65;100.00;97479.77;1473912;88;21496;-80
2023/12/22 03:41:34;;;;;;;18.43;11.47;;;;;;;4.68;100.00;97519.20;1469214;88;21392;-80
2023/12/22 03:44:00;;;;;;;15.13;10.90;;;;;;;4.70;100.00;97547.35;1472541;88;21569;-79
2023/12/22 03:46:26;;;;;;;18.37;11.50;;;;;;;4.73;100.00;97558.78;1472739;88;22323;-79
2023/12/22 03:48:52;;;;;;;18.40;11.70;;;;;;;4.75;100.00;97564.16;1473570;88;21362;-78
2023/12/22 03:51:18;;;;;;;17.97;12.53;;;;;;;4.77;100.00;97575.75;1471505;88;21520;-78
2023/12/22 03:53:45;;;;;;;18.80;11.87;;;;;;;4.77;100.00;97583.61;1469339;88;21399;-78
2023/12/22 03:56:11;;;;;;;16.43;12.03;;;;;;;4.80;100.00;97586.38;1468458;88;22514;-78
2023/12/22 03:58:38;;;;;;;15.90;10.17;;;;;;;4.79;100.00;97592.12;1470360;88;21310;-79
2023/12/22 04:01:07;;;;;;;17.47;11.87;;;;;;;4.79;100.00;97599.98;1472946;88;21311;-79
2023/12/22 04:03:33;;;;;;;16.60;11.37;;;;;;;4.79;100.00;97601.29;1475286;88;22408;-79
2023/12/22 04:06:04;;;;;;;16.63;11.37;;;;;;;4.79;100.00;97595.23;1470139;88;21384;-79
2023/12/22 04:08:30;;;;;;;14.47;9.27;;;;;;;4.79;100.00;97596.05;1471016;88;21361;-78
2023/12/22 04:10:56;;;;;;;12.57;8.97;;;;;;;4.80;100.00;97600.28;1467406;88;21347;-78
2023/12/22 04:13:23;;;;;;;17.37;11.63;;;;;;;4.82;100.00;97609.29;1453058;88;21621;-79
2023/12/22 04:15:49;;;;;;;15.37;11.20;;;;;;;4.82;100.00;97594.38;1475476;88;22337;-79
2023/12/22 04:18:15;;;;;;;16.30;9.80;;;;;;;4.83;100.00;97593.37;1461468;88;21893;-78
2023/12/22 04:20:41;;;;;;;13.00;8.93;;;;;;;4.82;100.00;97595.69;1474861;88;21562;-79
2023/12/22 04:23:08;;;;;;;14.93;9.77;;;;;;;4.84;100.00;97596.33;1471827;88;21392;-78
2023/12/22 04:25:34;;;;;;;12.60;9.23;;;;;;;4.86;100.00;97604.84;1482522;88;21569;-78
2023/12/22 04:28:00;;;;;;;15.13;8.70;;;;;;;4.88;100.00;97616.43;1478174;88;21377;-80
2023/12/22 04:30:27;;;;;;;14.07;8.80;;;;;;;4.88;100.00;97626.91;1473559;88;21576;-79
2023/12/22 04:32:54;;;;;;;12.83;8.83;;;;;;;4.88;100.00;97632.97;1474712;88;21569;-79
2023/12/22 04:35:20;;;;;;;12.40;8.73;;;;;;;4.90;100.00;97636.23;1456924;88;21443;-80
2023/12/22 04:37:46;;;;;;;12.83;8.53;;;;;;;4.88;100.00;97639.52;1460578;88;21553;-79
2023/12/22 04:40:12;;;;;;;14.47;8.80;;;;;;;4.88;100.00;97636.89;1460805;88;21362;-79
2023/12/22 04:42:39;;;;;;;10.33;7.10;;;;;;;4.88;100.00;97643.45;1471414;88;21563;-80
2023/12/22 04:45:05;;;;;;;12.03;7.30;;;;;;;4.86;100.00;97656.41;1478248;88;21517;-80
2023/12/22 04:47:31;;;;;;;11.20;7.77;;;;;;;4.85;100.00;97660.84;1478014;88;21347;-79
2023/12/22 04:49:58;;;;;;;12.03;7.47;;;;;;;4.84;100.00;97653.98;1476013;88;21539;-78
2023/12/22 04:52:24;;;;;;;11.90;8.40;;;;;;;4.82;100.00;97648.09;1457916;88;21428;-79
2023/12/22 04:54:50;;;;;;;9.43;6.80;;;;;;;4.81;100.00;97658.27;1474740;88;21369;-79
2023/12/22 04:57:16;;;;;;;12.63;7.07;;;;;;;4.81;100.00;97667.95;1473174;88;21510;-79
2023/12/22 04:59:42;;;;;;;9.20;6.37;;;;;;;4.81;100.00;97664.82;1467236;88;21399;-80
2023/12/22 05:02:08;;;;;;;11.67;6.47;;;;;;;4.83;100.00;97669.37;1474335;88;21488;-79
2023/12/22 05:04:34;;;;;;;8.47;5.63;;;;;;;4.84;100.00;97671.02;1470242;88;22249;-78
2023/12/22 05:07:01;;;;;;;10.77;5.83;;;;;;;4.86;100.00;97686.08;1475688;88;21524;-79
2023/12/22 05:09:28;;;;;;;11.27;6.17;;;;;;;4.87;100.00;97674.59;1477310;88;21405;-79
2023/12/22 05:11:54;;;;;;;9.47;5.87;;;;;;;4.87;100.00;97674.59;1479221;88;21412;-79
2023/12/22 05:14:21;;;;;;;10.70;6.53;;;;;;;4.85;100.00;97681.80;1471590;88;21362;-79
2023/12/22 05:16:47;;;;;;;7.57;5.43;;;;;;;4.79;100.00;97681.21;1474857;88;21510;-79
2023/12/22 05:19:13;;;;;;;8.30;5.60;;;;;;;4.73;100.00;97687.16;1471779;88;22433;-79
2023/12/22 05:21:39;;;;;;;12.03;7.13;;;;;;;4.64;100.00;97692.16;1479039;88;22345;-79
2023/12/22 05:24:06;;;;;;;9.90;5.90;;;;;;;4.58;100.00;97687.63;1474574;88;21510;-79
2023/12/22 05:26:32;;;;;;;9.40;5.37;;;;;;;4.51;100.00;97696.67;1476502;88;21953;-79
2023/12/22 05:28:58;;;;;;;10.17;6.40;;;;;;;4.44;100.00;97708.84;1479021;88;21569;-78
2023/12/22 05:31:25;;;;;;;11.37;6.20;;;;;;;4.34;100.00;97712.98;1470768;88;21444;-78
2023/12/22 05:33:51;;;;;;;6.57;5.03;;;;;;;4.32;100.00;97720.22;1466070;88;22250;-79
2023/12/22 05:36:17;;;;;;;7.00;4.97;;;;;;;4.28;100.00;97720.23;1475132;88;21398;-78
2023/12/22 05:38:44;;;;;;;8.17;5.20;;;;;;;4.25;100.00;97717.97;1469550;88;21532;-78
2023/12/22 05:41:10;;;;;;;8.30;5.00;;;;;;;4.24;100.00;97726.32;1457612;88;21398;-79
2023/12/22 05:43:36;;;;;;;8.13;5.53;;;;;;;4.24;100.00;97717.66;1471199;88;21384;-78
2023/12/22 05:46:03;;;;;;;8.60;4.00;;;;;;;4.26;100.00;97734.02;1471299;88;21496;-78
2023/12/22 05:48:29;;;;;;;5.63;3.20;;;;;;;4.30;100.00;97734.78;1468484;88;21606;-79
2023/12/22 05:50:58;;;;;;;5.17;2.83;;;;;;;4.34;100.00;97731.32;1468607;88;21464;-78
2023/12/22 05:53:25;;;;;;;4.23;2.77;;;;;;;4.37;100.00;97743.25;1473158;88;21480;-79
2023/12/22 05:55:53;;;;;;;6.00;3.13;;;;;;;4.41;100.00;97744.05;1480399;88;21605;-78
2023/12/22 05:58:19;;;;;;;4.03;2.63;;;;;;;4.43;100.00;97749.94;1476675;88;22206;-78
2023/12/22 06:00:46;;;;;;;7.53;4.50;;;;;;;4.44;100.00;97754.68;1469603;88;22415;-78
2023/12/22 06:03:14;;;;;;;5.50;4.10;;;;;;;4.41;100.00;97763.70;1476681;88;21471;-79
2023/12/22 06:05:40;;;;;;;7.10;3.83;;;;;;;4.38;100.00;97764.05;1474923;88;22176;-77
2023/12/22 06:08:06;;;;;;;5.83;3.20;;;;;;;4.34;100.00;97771.09;1473430;88;21516;-77
2023/12/22 06:10:33;;;;;;;7.90;3.43;;;;;;;4.30;100.00;97779.80;1474471;88;22263;-76
2023/12/22 06:13:03;;;;;;;5.63;2.80;;;;;;;4.26;100.00;97789.00;1465604;88;21427;-76
2023/12/22 06:15:27;;;;;;;3.87;2.90;;;;;;;4.23;100.00;97791.93;1476456;88;21428;-77
2023/12/22 06:17:53;;;;;;;4.73;1.97;;;;;;;4.20;100.00;97800.13;1467115;88;21377;-77
2023/12/22 06:20:19;;;;;;;7.97;2.30;;;;;;;4.17;100.00;97799.16;1475795;88;21406;-78
2023/12/22 06:22:45;;;;;;;3.87;2.27;;;;;;;4.16;100.00;97792.30;1473708;88;21527;-77
2023/12/22 06:25:12;;;;;;;3.67;1.87;;;;;;;4.13;100.00;97803.12;1473917;88;22780;-77
2023/12/22 06:27:38;;;;;;;4.77;2.37;;;;;;;4.10;100.00;97816.55;1460089;88;21761;-77
2023/12/22 06:30:06;;;;;;;5.77;1.63;;;;;;;4.11;100.00;97827.33;1479206;88;21354;-77
2023/12/22 06:32:33;;;;;;;3.73;1.27;;;;;;;4.03;100.00;97827.70;1483010;88;21553;-77
2023/12/22 06:35:00;;;;;;;4.30;2.20;;;;;;;4.02;100.00;97828.67;1475146;88;22403;-78
2023/12/22 06:37:26;;;;;;;7.03;2.30;;;;;;;4.02;100.00;97837.02;1476744;88;21531;-77
2023/12/22 06:39:53;;;;;;;6.43;2.53;;;;;;;3.97;100.00;97848.02;1476220;88;22226;-78
2023/12/22 06:42:19;;;;;;;4.70;1.60;;;;;;;3.97;100.00;97855.86;1474860;88;22463;-78
2023/12/22 06:44:45;;;;;;;6.37;1.87;;;;;;;3.98;100.00;97854.87;1476196;88;21302;-78
2023/12/22 06:47:11;;;;;;;3.63;1.67;;;;;;;3.99;100.00;97866.95;1469399;88;21369;-79
2023/12/22 06:49:38;;;;;;;5.00;1.40;;;;;;;3.99;100.00;97872.69;1475235;88;21509;-78
2023/12/22 06:52:05;;;;;;;5.67;1.80;;;;;;;3.97;100.00;97872.88;1453239;88;22410;-78
2023/12/22 06:54:31;;;;;;;4.43;1.37;;;;;;;3.98;100.00;97878.92;1477457;88;22286;-78
2023/12/22 06:56:57;;;;;;;3.43;2.20;;;;;;;3.97;100.00;97884.66;1471315;88;21483;-78
2023/12/22 06:59:24;;;;;;;3.97;1.40;;;;;;;3.94;100.00;97890.22;1468532;88;21366;-78
2023/12/22 07:01:50;;;;;;;4.17;1.80;;;;;;;3.96;100.00;97891.34;1471471;88;21703;-78
2023/12/22 07:04:16;;;;;;;6.37;2.17;;;;;;;3.95;100.00;97888.41;1477299;88;22375;-78
2023/12/22 07:06:42;;;;;;;8.30;1.80;;;;;;;3.97;100.00;97891.66;1466177;88;21428;-79
2023/12/22 07:09:20;;;;;;;3.03;1.90;;;;;;;3.98;100.00;97898.05;1481978;88;21627;-77
2023/12/22 07:11:52;;;;;;;2.43;1.17;;;;;;;4.02;100.00;97889.37;1471937;88;21369;-78
2023/12/22 07:14:18;;;;;;;4.90;1.10;;;;;;;4.07;100.00;97895.73;1458046;88;21480;-77
2023/12/22 07:16:45;;;;;;;5.93;2.27;;;;;;;4.12;100.00;97898.35;1478318;88;21361;-77
2023/12/22 07:19:12;;;;;;;5.40;2.13;;;;;;;4.17;100.00;97905.19;1471694;88;22360;-77
2023/12/22 07:21:40;;;;;;;4.57;1.87;;;;;;;4.20;100.00;97909.62;1462584;88;21436;-77
2023/12/22 07:24:07;;;;;;;6.40;2.40;;;;;;;4.23;100.00;97904.51;1474672;88;21509;-78
2023/12/22 07:26:34;;;;;;;5.67;2.03;;;;;;;4.28;100.00;97916.11;1473159;88;21525;-76
2023/12/22 07:29:00;;;;;;;7.67;2.73;;;;;;;4.32;100.00;97914.00;1480862;88;21607;-78
2023/12/22 07:31:26;;;;;;;5.07;1.97;;;;;;;4.38;100.00;97915.93;1460930;88;21508;-77
2023/12/22 07:33:53;;;;;;;7.57;1.63;;;;;;;4.42;100.00;97911.16;1472830;88;21502;-78
2023/12/22 07:36:19;;;;;;;5.57;2.10;;;;;;;4.50;100.00;97911.95;1476061;88;21362;-77
2023/12/22 07:38:45;;;;;;;4.83;1.80;;;;;;;4.59;100.00;97915.84;1471279;88;21505;-76
2023/12/22 07:41:11;;;;;;;5.13;1.70;;;;;;;4.65;100.00;97930.38;1475741;88;22294;-77
2023/12/22 07:43:37;;;;;;;7.90;1.50;;;;;;;4.71;100.00;97936.74;1475820;88;22604;-77
2023/12/22 07:46:03;;;;;;;3.70;1.40;;;;;;;4.75;100.00;97938.05;1455754;88;21362;-76
2023/12/22 07:48:29;;;;;;;9.80;2.77;;;;;;;4.80;100.00;97948.81;1474927;88;21620;-77
2023/12/22 07:50:55;;;;;;;9.17;2.20;;;;;;;4.86;100.00;97947.31;1473389;88;21377;-78
2023/12/22 07:53:22;;;;;;;6.37;2.80;;;;;;;4.89;100.00;97945.19;1470740;88;21436;-77
2023/12/22 07:55:48;;;;;;;13.17;2.73;;;;;;;4.88;100.00;97943.53;1473850;88;21436;-78
2023/12/22 07:58:14;;;;;;;8.90;2.60;;;;;;;4.88;100.00;97951.40;1470789;88;21505;-77
2023/12/22 08:00:40;;;;;;;4.10;2.40;;;;;;;4.84;100.00;97963.22;1475584;88;22773;-78
2023/12/22 08:03:07;;;;;;;8.87;2.17;;;;;;;4.81;100.00;97957.52;1475072;88;21605;-78
2023/12/22 08:05:33;;;;;;;10.70;3.00;;;;;;;4.77;100.00;97960.95;1470518;88;21441;-77
2023/12/22 08:07:59;;;;;;;6.80;3.30;;;;;;;4.76;100.00;97958.02;1475624;88;21383;-78
2023/12/22 08:10:27;;;;;;;9.03;4.60;;;;;;;4.80;100.00;97959.30;1472789;88;21428;-78
2023/12/22 08:12:53;;;;;;;6.60;2.47;;;;;;;4.85;100.00;97966.16;1470492;88;21576;-77
2023/12/22 08:15:19;;;;;;;18.63;7.80;;;;;;;4.92;100.00;97971.05;1465421;88;22859;-77
2023/12/22 08:17:48;;;;;;;5.87;2.03;;;;;;;4.97;100.00;97967.40;1465666;88;22381;-77
2023/12/22 08:20:20;;;;;;;11.30;2.40;;;;;;;5.05;100.00;97967.86;1469987;88;21487;-77
2023/12/22 08:22:51;;;;;;;5.07;1.50;;;;;;;5.11;100.00;97971.09;1471914;88;22544;-76
2023/12/22 08:25:20;;;;;;;3.15;1.30;;;;;;;5.19;100.00;97963.19;1474915;88;22514;-77
2023/12/22 08:27:46;;;;;;;8.00;2.47;;;;;;;5.27;100.00;97966.27;1476973;88;22278;-76
2023/12/22 08:30:14;;;;;;;8.70;2.30;;;;;;;5.35;100.00;97976.70;1460484;88;21531;-77
2023/12/22 08:32:41;;;;;;;7.20;2.50;;;;;;;5.40;100.00;97982.22;1479054;88;21406;-76
2023/12/22 08:35:08;;;;;;;13.67;5.10;;;;;;;5.47;100.00;97988.08;1473997;88;22440;-76
2023/12/22 08:37:34;;;;;;;12.93;4.37;;;;;;;5.51;100.00;97994.63;1477704;88;21362;-77
2023/12/22 08:40:00;;;;;;;15.30;6.23;;;;;;;5.50;100.00;97994.32;1471322;88;21509;-77
2023/12/22 08:42:28;;;;;;;14.00;5.47;;;;;;;5.50;100.00;97993.01;1469296;88;22329;-76
2023/12/22 08:44:54;;;;;;;15.57;7.03;;;;;;;5.52;100.00;97992.31;1478264;88;21324;-76
2023/12/22 08:47:20;;;;;;;8.50;3.77;;;;;;;5.52;100.00;97987.07;1481785;88;21502;-77
2023/12/22 08:49:46;;;;;;;16.97;11.60;;;;;;;5.55;100.00;97989.34;1469824;88;21398;-76
2023/12/22 08:52:13;;;;;;;9.37;3.63;;;;;;;5.56;100.00;97993.62;1452662;88;22352;-76
2023/12/22 08:54:39;;;;;;;6.57;2.77;;;;;;;5.58;100.00;98002.11;1475670;88;21369;-77
2023/12/22 08:57:05;;;;;;;5.83;2.67;;;;;;;5.61;100.00;97999.13;1472372;88;21527;-77
2023/12/22 08:59:31;;;;;;;4.80;2.23;;;;;;;5.64;100.00;98002.75;1472874;88;21369;-77
2023/12/22 09:01:58;;;;;;;5.10;2.47;;;;;;;5.69;100.00;98017.45;1480258;88;21399;-76
2023/12/22 09:04:24;;;;;;;8.27;2.33;;;;;;;5.70;100.00;98015.16;1476076;88;21524;-76
2023/12/22 09:06:50;;;;;;;6.17;2.20;;;;;;;5.76;100.00;98014.46;1472953;88;22382;-76
2023/12/22 09:09:17;;;;;;;6.73;2.93;;;;;;;5.79;100.00;98014.11;1471902;88;21347;-76
2023/12/22 09:11:44;;;;;;;6.87;2.70;;;;;;;5.83;100.00;98008.00;1478034;88;22396;-77
2023/12/22 09:14:10;;;;;;;6.50;2.63;;;;;;;5.81;100.00;98009.50;1474006;88;21347;-77
2023/12/22 09:16:38;;;;;;;5.80;2.67;;;;;;;5.85;100.00;98010.77;1466383;88;22429;-77
2023/12/22 09:19:05;;;;;;;6.80;1.70;;;;;;;5.83;100.00;98006.69;1480870;88;21443;-77
2023/12/22 09:21:31;;;;;;;6.80;2.10;;;;;;;5.82;100.00;98013.75;1475364;88;22412;-78
2023/12/22 09:23:57;;;;;;;8.87;3.53;;;;;;;5.87;100.00;98008.80;1469524;88;21458;-77
2023/12/22 09:26:23;;;;;;;7.67;2.33;;;;;;;5.87;100.00;98007.48;1482751;88;22293;-77
2023/12/22 09:28:49;;;;;;;5.77;1.77;;;;;;;5.93;100.00;98011.69;1474898;88;21398;-78
2023/12/22 09:31:16;;;;;;;4.77;2.03;;;;;;;6.00;100.00;98017.91;1468783;88;21487;-77
2023/12/22 09:33:44;;;;;;;10.90;2.53;;;;;;;6.02;100.00;98022.50;1475825;88;22344;-76
2023/12/22 09:36:10;;;;;;;7.50;2.20;;;;;;;6.04;100.00;98024.42;1472625;88;21295;-78
2023/12/22 09:38:36;;;;;;;9.63;2.10;;;;;;;6.12;100.00;98009.10;1477399;88;21354;-79
2023/12/22 09:41:03;;;;;;;6.60;1.90;;;;;;;6.19;100.00;98007.41;1473572;88;21524;-77
2023/12/22 09:43:33;;;;;;;4.53;1.30;;;;;;;6.33;100.00;98014.00;1468726;88;21310;-78
2023/12/22 09:46:00;;;;;;;5.03;1.65;;;;;;;6.60;100.00;98010.43;1473918;88;21435;-78
2023/12/22 09:48:27;;;;;;;5.77;1.93;;;;;;;7.36;100.00;98015.41;1461938;88;22381;-78
2023/12/22 09:50:55;;;;;;;7.50;2.93;;;;;;;8.01;100.00;98016.24;1472960;88;21459;-78
2023/12/22 09:53:21;;;;;;;7.60;2.77;;;;;;;8.62;100.00;98033.64;1476599;88;22974;-77
2023/12/22 09:55:50;;;;;;;4.03;1.90;;;;;;;9.13;100.00;98016.66;1474946;88;21369;-78
2023/12/22 09:58:17;;;;;;;6.93;2.70;;;;;;;9.46;100.00;98011.48;1469428;88;21331;-78
2023/12/22 10:00:44;;;;;;;6.10;1.93;;;;;;;9.71;100.00;98020.98;1471339;88;21332;-77
2023/12/22 10:03:12;;;;;;;6.17;1.60;;;;;;;9.59;100.00;98027.87;1470023;88;22441;-77
2023/12/22 10:05:43;;;;;;;6.37;2.53;;;;;;;9.93;100.00;98022.45;1472005;88;21413;-78
2023/12/22 10:08:12;;;;;;;4.80;2.47;;;;;;;10.24;100.00;98014.43;1480176;88;21376;-78
2023/12/22 10:10:44;;;;;;;8.37;2.80;;;;;;;10.65;100.00;98016.55;1481585;88;21450;-77
2023/12/22 10:13:10;;;;;;;6.33;2.10;;;;;;;10.88;100.00;98020.05;1471802;88;21450;-78
2023/12/22 10:15:45;;;;;;;5.43;2.47;;;;;;;11.00;100.00;98034.26;1472222;88;21523;-77
2023/12/22 10:18:12;;;;;;;4.47;1.70;;;;;;;10.86;100.00;98022.09;1473434;88;22146;-79
2023/12/22 10:20:39;;;;;;;6.23;1.80;;;;;;;10.72;100.00;98018.14;1478587;88;21347;-78
2023/12/22 10:23:06;;;;;;;6.43;2.10;;;;;;;10.65;100.00;98023.97;1459482;88;21914;-79
2023/12/22 10:25:35;;;;;;;4.80;1.73;;;;;;;10.52;100.00;98018.69;1474925;88;21458;-78
2023/12/22 10:28:01;;;;;;;5.23;1.80;;;;;;;10.48;69.78;98026.23;1468956;88;21561;-78
2023/12/22 10:30:28;;;;;;;7.67;1.60;;;;;;;10.12;61.68;98016.04;1479522;88;21376;-78
2023/12/22 10:32:55;;;;;;;5.10;2.10;;;;;;;9.92;62.27;98016.84;1471526;88;21576;-77
2023/12/22 10:35:22;;;;;;;3.20;1.50;;;;;;;9.86;63.58;98003.12;1456843;88;21502;-78
2023/12/22 10:37:53;;;;;;;7.93;2.20;;;;;;;9.81;56.78;97995.49;1475273;88;21605;-77
2023/12/22 10:40:20;;;;;;;6.13;2.60;;;;;;;9.71;57.02;98000.67;1472803;88;21326;-77
2023/12/22 10:42:46;;;;;;;6.07;2.57;;;;;;;9.56;54.31;97997.91;1455710;88;21414;-77
2023/12/22 10:45:13;;;;;;;7.07;2.97;;;;;;;9.63;55.06;98000.05;1474660;88;22425;-78
2023/12/22 10:47:40;;;;;;;5.17;1.90;;;;;;;9.76;56.66;98002.72;1470908;88;21436;-77
2023/12/22 10:50:07;;;;;;;5.00;2.27;;;;;;;9.66;55.52;98004.41;1468871;88;21513;-78
2023/12/22 10:52:34;;;;;;;5.03;1.93;;;;;;;9.63;56.14;97997.41;1472605;88;21465;-77
2023/12/22 10:55:00;;;;;;;4.47;1.97;;;;;;;9.36;54.70;97997.35;1461837;88;22210;-77
2023/12/22 10:57:27;;;;;;;7.40;2.00;;;;;;;9.52;56.96;97994.03;1473386;88;21524;-78
2023/12/22 11:00:00;;;;;;;7.43;2.30;;;;;;;9.55;56.95;97997.59;1476181;88;21413;-78
2023/12/22 11:02:29;;;;;;;8.67;2.47;;;;;;;9.49;55.75;97990.80;1474244;88;22256;-77
2023/12/22 11:05:09;;;;;;;5.93;1.90;;;;;;;9.53;57.00;97991.72;1476604;88;21384;-77
2023/12/22 11:07:37;;;;;;;6.07;1.80;;;;;;;9.48;55.88;97985.19;1477372;88;21369;-77
2023/12/22 11:10:06;;;;;;;4.17;1.70;;;;;;;9.52;56.07;97988.23;1468539;88;22336;-77
2023/12/22 11:12:38;;;;;;;5.10;2.73;;;;;;;9.49;54.23;98006.64;1478814;88;21583;-77
2023/12/22 11:15:11;;;;;;;2.37;1.63;;;;;;;9.40;54.37;97995.92;1473931;88;21569;-76
2023/12/22 11:17:35;;;;;;;5.67;1.93;;;;;;;9.27;54.35;97990.63;1479596;88;21421;-77
2023/12/22 11:20:03;;;;;;;4.60;2.23;;;;;;;9.32;54.51;97988.22;1476977;88;21592;-77
2023/12/22 11:22:31;;;;;;;6.23;1.77;;;;;;;9.36;55.93;97994.71;1473340;88;21368;-76
2023/12/22 11:25:00;;;;;;;5.33;2.03;;;;;;;9.20;54.94;97986.63;1475332;88;21435;-77